PWSweather.com
Personal Weather Stations
Station Observations
KCAEMERA1
Emerald Hills, Redwood City, CA 94062

Emerald HillsRedwood City, CA 94062

Lat: 37.46, Lon: -122.27

Elevation: 800

Station Type:

http://www.anegada.com/weather/wx.htm

High Low Average
Temperature 81.8°F27.7°C 50.4°F10.2°C 65.1°F18.4°C
Dew Point 55.1°F12.8°C 35.5°F1.9°C 45.8°F7.7°C
Winds 9.0 mph 14.5 kmh Calm Calm 2.0 mph S3.2 kmh S
Wind Gusts 13.0 mph20.9 kmh -- 6.0 mph9.7 kmh
Humidity 68% 33% 51%
Pressure 29.87 in1011.5 mb 29.83 in1010.2 mb -
Precipitation 0.00 in0.0 mm - -
Hour Temp Dew Point Humidity Winds Wind Gusts Pressure Precip Precip Rate Daily Precip Total
12:03 AM 56.5°F13.6°C 43.2°F6.2°C 61% Calm Calm -- 29.85 in1010.8 mb 0.00 in0.0 mm 0.00 in/hr0.0 mm/hr 0.00 in0.0 mm
12:11 AM 56.2°F13.4°C 42.5°F5.8°C 60% Calm Calm 2.0 mph3.2 kmh 29.85 in1010.8 mb 0.00 in0.0 mm 0.00 in/hr0.0 mm/hr 0.00 in0.0 mm
12:21 AM 56.1°F13.4°C 41.1°F5.1°C 57% 1.0 mph W1.6 kmh W 2.0 mph3.2 kmh 29.85 in1010.8 mb 0.00 in0.0 mm 0.00 in/hr0.0 mm/hr 0.00 in0.0 mm
12:33 AM 55.7°F13.2°C 40.3°F4.6°C 56% Calm Calm 4.0 mph6.4 kmh 29.85 in1010.8 mb 0.00 in0.0 mm 0.00 in/hr0.0 mm/hr 0.00 in0.0 mm
12:41 AM 55.5°F13.1°C 40.1°F4.5°C 56% Calm Calm 2.0 mph3.2 kmh 29.85 in1010.8 mb 0.00 in0.0 mm 0.00 in/hr0.0 mm/hr 0.00 in0.0 mm
12:51 AM 55.2°F12.9°C 39.8°F4.3°C 56% 3.0 mph WSW4.8 kmh WSW 5.0 mph8.0 kmh 29.85 in1010.8 mb 0.00 in0.0 mm 0.00 in/hr0.0 mm/hr 0.00 in0.0 mm
01:03 AM 54.9°F12.7°C 40.4°F4.7°C 58% 2.0 mph WSW3.2 kmh WSW 4.0 mph6.4 kmh 29.85 in1010.8 mb 0.00 in0.0 mm 0.00 in/hr0.0 mm/hr 0.00 in0.0 mm
01:11 AM 54.7°F12.6°C 40.7°F4.8°C 59% 4.0 mph WSW6.4 kmh WSW 6.0 mph9.7 kmh 29.85 in1010.8 mb 0.00 in0.0 mm 0.00 in/hr0.0 mm/hr 0.00 in0.0 mm
01:21 AM 54.5°F12.5°C 39.6°F4.2°C 57% 3.0 mph WSW4.8 kmh WSW 8.0 mph12.9 kmh 29.85 in1010.8 mb 0.00 in0.0 mm 0.00 in/hr0.0 mm/hr 0.00 in0.0 mm
01:33 AM 54.4°F12.4°C 41.3°F5.2°C 61% 3.0 mph WSW4.8 kmh WSW 11.0 mph17.7 kmh 29.85 in1010.8 mb 0.00 in0.0 mm 0.00 in/hr0.0 mm/hr 0.00 in0.0 mm
01:41 AM 54.2°F12.3°C 41.5°F5.3°C 62% 6.0 mph WSW9.7 kmh WSW 9.0 mph14.5 kmh 29.85 in1010.8 mb 0.00 in0.0 mm 0.00 in/hr0.0 mm/hr 0.00 in0.0 mm
01:51 AM 54.0°F12.2°C 40.9°F4.9°C 61% 1.0 mph SW1.6 kmh SW 9.0 mph14.5 kmh 29.85 in1010.8 mb 0.00 in0.0 mm 0.00 in/hr0.0 mm/hr 0.00 in0.0 mm
02:03 AM 53.5°F11.9°C 42.4°F5.8°C 66% 1.0 mph W1.6 kmh W 5.0 mph8.0 kmh 29.85 in1010.8 mb 0.00 in0.0 mm 0.00 in/hr0.0 mm/hr 0.00 in0.0 mm
02:11 AM 53.4°F11.9°C 41.5°F5.3°C 64% 1.0 mph SW1.6 kmh SW 6.0 mph9.7 kmh 29.85 in1010.8 mb 0.00 in0.0 mm 0.00 in/hr0.0 mm/hr 0.00 in0.0 mm
02:21 AM 53.1°F11.7°C 41.3°F5.2°C 64% 5.0 mph WSW8.0 kmh WSW 6.0 mph9.7 kmh 29.85 in1010.8 mb 0.00 in0.0 mm 0.00 in/hr0.0 mm/hr 0.00 in0.0 mm
02:33 AM 52.8°F11.6°C 41.0°F5.0°C 64% 1.0 mph SW1.6 kmh SW 6.0 mph9.7 kmh 29.84 in1010.5 mb 0.00 in0.0 mm 0.00 in/hr0.0 mm/hr 0.00 in0.0 mm
02:41 AM 52.7°F11.5°C 40.9°F4.9°C 64% 2.0 mph SW3.2 kmh SW 3.0 mph4.8 kmh 29.84 in1010.5 mb 0.00 in0.0 mm 0.00 in/hr0.0 mm/hr 0.00 in0.0 mm
02:51 AM 52.5°F11.4°C 41.1°F5.1°C 65% 1.0 mph SW1.6 kmh SW 5.0 mph8.0 kmh 29.84 in1010.5 mb 0.00 in0.0 mm 0.00 in/hr0.0 mm/hr 0.00 in0.0 mm
03:03 AM 52.2°F11.2°C 40.8°F4.9°C 65% 3.0 mph SW4.8 kmh SW 6.0 mph9.7 kmh 29.83 in1010.2 mb 0.00 in0.0 mm 0.00 in/hr0.0 mm/hr 0.00 in0.0 mm
03:11 AM 52.0°F11.1°C 40.6°F4.8°C 65% 1.0 mph SW1.6 kmh SW 6.0 mph9.7 kmh 29.83 in1010.2 mb 0.00 in0.0 mm 0.00 in/hr0.0 mm/hr 0.00 in0.0 mm
03:21 AM 51.6°F10.9°C 39.8°F4.3°C 64% Calm Calm -- 29.83 in1010.2 mb 0.00 in0.0 mm 0.00 in/hr0.0 mm/hr 0.00 in0.0 mm
03:33 AM 51.5°F10.8°C 40.1°F4.5°C 65% Calm Calm 1.0 mph1.6 kmh 29.83 in1010.2 mb 0.00 in0.0 mm 0.00 in/hr0.0 mm/hr 0.00 in0.0 mm
03:41 AM 51.5°F10.8°C 39.7°F4.3°C 64% Calm Calm -- 29.83 in1010.2 mb 0.00 in0.0 mm 0.00 in/hr0.0 mm/hr 0.00 in0.0 mm
03:51 AM 51.2°F10.7°C 39.9°F4.4°C 65% Calm Calm 2.0 mph3.2 kmh 29.83 in1010.2 mb 0.00 in0.0 mm 0.00 in/hr0.0 mm/hr 0.00 in0.0 mm
04:03 AM 51.1°F10.6°C 39.8°F4.3°C 65% Calm Calm 2.0 mph3.2 kmh 29.83 in1010.2 mb 0.00 in0.0 mm 0.00 in/hr0.0 mm/hr 0.00 in0.0 mm
04:11 AM 51.1°F10.6°C 36.9°F2.7°C 58% 1.0 mph SW1.6 kmh SW 2.0 mph3.2 kmh 29.83 in1010.2 mb 0.00 in0.0 mm 0.00 in/hr0.0 mm/hr 0.00 in0.0 mm
04:21 AM 51.0°F10.6°C 35.9°F2.2°C 56% Calm Calm -- 29.83 in1010.2 mb 0.00 in0.0 mm 0.00 in/hr0.0 mm/hr 0.00 in0.0 mm
04:33 AM 50.9°F10.5°C 35.8°F2.1°C 56% 1.0 mph SW1.6 kmh SW 2.0 mph3.2 kmh 29.83 in1010.2 mb 0.00 in0.0 mm 0.00 in/hr0.0 mm/hr 0.00 in0.0 mm
04:41 AM 50.8°F10.4°C 35.7°F2.1°C 56% 1.0 mph SW1.6 kmh SW 2.0 mph3.2 kmh 29.84 in1010.5 mb 0.00 in0.0 mm 0.00 in/hr0.0 mm/hr 0.00 in0.0 mm
04:51 AM 50.6°F10.3°C 35.5°F1.9°C 56% Calm Calm 3.0 mph4.8 kmh 29.83 in1010.2 mb 0.00 in0.0 mm 0.00 in/hr0.0 mm/hr 0.00 in0.0 mm
05:03 AM 50.4°F10.2°C 39.1°F3.9°C 65% Calm Calm 4.0 mph6.4 kmh 29.83 in1010.2 mb 0.00 in0.0 mm 0.00 in/hr0.0 mm/hr 0.00 in0.0 mm
05:11 AM 50.4°F10.2°C 39.5°F4.2°C 66% 2.0 mph SW3.2 kmh SW 4.0 mph6.4 kmh 29.83 in1010.2 mb 0.00 in0.0 mm 0.00 in/hr0.0 mm/hr 0.00 in0.0 mm
05:21 AM 50.5°F10.3°C 39.6°F4.2°C 66% 3.0 mph SSE4.8 kmh SSE 5.0 mph8.0 kmh 29.84 in1010.5 mb 0.00 in0.0 mm 0.00 in/hr0.0 mm/hr 0.00 in0.0 mm
05:33 AM 50.5°F10.3°C 40.0°F4.4°C 67% 4.0 mph SSE6.4 kmh SSE 5.0 mph8.0 kmh 29.84 in1010.5 mb 0.00 in0.0 mm 0.00 in/hr0.0 mm/hr 0.00 in0.0 mm
05:41 AM 50.5°F10.3°C 40.0°F4.4°C 67% 2.0 mph SSE3.2 kmh SSE 5.0 mph8.0 kmh 29.84 in1010.5 mb 0.00 in0.0 mm 0.00 in/hr0.0 mm/hr 0.00 in0.0 mm
05:51 AM 50.5°F10.3°C 40.0°F4.4°C 67% 1.0 mph SSE1.6 kmh SSE 5.0 mph8.0 kmh 29.85 in1010.8 mb 0.00 in0.0 mm 0.00 in/hr0.0 mm/hr 0.00 in0.0 mm
06:03 AM 50.5°F10.3°C 40.0°F4.4°C 67% 3.0 mph SSE4.8 kmh SSE 5.0 mph8.0 kmh 29.84 in1010.5 mb 0.00 in0.0 mm 0.00 in/hr0.0 mm/hr 0.00 in0.0 mm
06:11 AM 50.6°F10.3°C 40.1°F4.5°C 67% 2.0 mph SSE3.2 kmh SSE 5.0 mph8.0 kmh 29.84 in1010.5 mb 0.00 in0.0 mm 0.00 in/hr0.0 mm/hr 0.00 in0.0 mm
06:21 AM 50.9°F10.5°C 40.7°F4.8°C 68% 1.0 mph SE1.6 kmh SE 2.0 mph3.2 kmh 29.84 in1010.5 mb 0.00 in0.0 mm 0.00 in/hr0.0 mm/hr 0.00 in0.0 mm
06:33 AM 51.3°F10.7°C 41.1°F5.1°C 68% Calm Calm 5.0 mph8.0 kmh 29.85 in1010.8 mb 0.00 in0.0 mm 0.00 in/hr0.0 mm/hr 0.00 in0.0 mm
06:41 AM 51.5°F10.8°C 40.9°F4.9°C 67% 2.0 mph SE3.2 kmh SE 2.0 mph3.2 kmh 29.85 in1010.8 mb 0.00 in0.0 mm 0.00 in/hr0.0 mm/hr 0.00 in0.0 mm
06:51 AM 51.8°F11.0°C 41.2°F5.1°C 67% Calm Calm 3.0 mph4.8 kmh 29.85 in1010.8 mb 0.00 in0.0 mm 0.00 in/hr0.0 mm/hr 0.00 in0.0 mm
07:03 AM 52.8°F11.6°C 41.8°F5.4°C 66% 1.0 mph SE1.6 kmh SE 4.0 mph6.4 kmh 29.85 in1010.8 mb 0.00 in0.0 mm 0.00 in/hr0.0 mm/hr 0.00 in0.0 mm
07:11 AM 53.6°F12.0°C 42.1°F5.6°C 65% Calm Calm 4.0 mph6.4 kmh 29.85 in1010.8 mb 0.00 in0.0 mm 0.00 in/hr0.0 mm/hr 0.00 in0.0 mm
07:21 AM 54.9°F12.7°C 38.6°F3.7°C 54% Calm Calm 2.0 mph3.2 kmh 29.85 in1010.8 mb 0.00 in0.0 mm 0.00 in/hr0.0 mm/hr 0.00 in0.0 mm
07:33 AM 56.1°F13.4°C 39.7°F4.3°C 54% Calm Calm 2.0 mph3.2 kmh 29.85 in1010.8 mb 0.00 in0.0 mm 0.00 in/hr0.0 mm/hr 0.00 in0.0 mm
07:41 AM 56.5°F13.6°C 40.1°F4.5°C 54% Calm Calm 2.0 mph3.2 kmh 29.86 in1011.2 mb 0.00 in0.0 mm 0.00 in/hr0.0 mm/hr 0.00 in0.0 mm
07:51 AM 57.8°F14.3°C 40.3°F4.6°C 52% Calm Calm 2.0 mph3.2 kmh 29.86 in1011.2 mb 0.00 in0.0 mm 0.00 in/hr0.0 mm/hr 0.00 in0.0 mm
08:03 AM 59.3°F15.2°C 45.4°F7.4°C 60% 2.0 mph NE3.2 kmh NE 4.0 mph6.4 kmh 29.86 in1011.2 mb 0.00 in0.0 mm 0.00 in/hr0.0 mm/hr 0.00 in0.0 mm
08:11 AM 59.1°F15.1°C 45.7°F7.6°C 61% 2.0 mph 3.2 kmh 4.0 mph6.4 kmh 29.86 in1011.2 mb 0.00 in0.0 mm 0.00 in/hr0.0 mm/hr 0.00 in0.0 mm
08:21 AM 60.0°F15.6°C 44.3°F6.8°C 56% Calm Calm -- 29.86 in1011.2 mb 0.00 in0.0 mm 0.00 in/hr0.0 mm/hr 0.00 in0.0 mm
08:33 AM 61.3°F16.3°C 45.5°F7.5°C 56% Calm Calm 4.0 mph6.4 kmh 29.87 in1011.5 mb 0.00 in0.0 mm 0.00 in/hr0.0 mm/hr 0.00 in0.0 mm
08:41 AM 62.3°F16.8°C 46.0°F7.8°C 55% Calm Calm 1.0 mph1.6 kmh 29.87 in1011.5 mb 0.00 in0.0 mm 0.00 in/hr0.0 mm/hr 0.00 in0.0 mm
08:51 AM 63.2°F17.3°C 46.3°F7.9°C 54% Calm Calm 3.0 mph4.8 kmh 29.87 in1011.5 mb 0.00 in0.0 mm 0.00 in/hr0.0 mm/hr 0.00 in0.0 mm
09:03 AM 65.0°F18.3°C 48.5°F9.2°C 55% Calm Calm 3.0 mph4.8 kmh 29.86 in1011.2 mb 0.00 in0.0 mm 0.00 in/hr0.0 mm/hr 0.00 in0.0 mm
09:11 AM 66.0°F18.9°C 49.9°F9.9°C 56% Calm Calm 3.0 mph4.8 kmh 29.86 in1011.2 mb 0.00 in0.0 mm 0.00 in/hr0.0 mm/hr 0.00 in0.0 mm
09:21 AM 67.6°F19.8°C 49.4°F9.7°C 52% Calm Calm 2.0 mph3.2 kmh 29.86 in1011.2 mb 0.00 in0.0 mm 0.00 in/hr0.0 mm/hr 0.00 in0.0 mm
09:33 AM 67.8°F19.9°C 49.0°F9.4°C 51% Calm Calm 3.0 mph4.8 kmh 29.87 in1011.5 mb 0.00 in0.0 mm 0.00 in/hr0.0 mm/hr 0.00 in0.0 mm
09:41 AM 69.3°F20.7°C 47.1°F8.4°C 45% 6.0 mph 9.7 kmh 6.0 mph9.7 kmh 29.86 in1011.2 mb 0.00 in0.0 mm 0.00 in/hr0.0 mm/hr 0.00 in0.0 mm
09:51 AM 69.7°F20.9°C 49.7°F9.8°C 49% 2.0 mph N3.2 kmh N 6.0 mph9.7 kmh 29.86 in1011.2 mb 0.00 in0.0 mm 0.00 in/hr0.0 mm/hr 0.00 in0.0 mm
10:03 AM 70.1°F21.2°C 49.5°F9.7°C 48% 1.0 mph 1.6 kmh 4.0 mph6.4 kmh 29.86 in1011.2 mb 0.00 in0.0 mm 0.00 in/hr0.0 mm/hr 0.00 in0.0 mm
10:11 AM 71.0°F21.7°C 48.6°F9.2°C 45% 4.0 mph N6.4 kmh N 5.0 mph8.0 kmh 29.86 in1011.2 mb 0.00 in0.0 mm 0.00 in/hr0.0 mm/hr 0.00 in0.0 mm
10:21 AM 72.5°F22.5°C 49.4°F9.7°C 44% Calm Calm 2.0 mph3.2 kmh 29.86 in1011.2 mb 0.00 in0.0 mm 0.00 in/hr0.0 mm/hr 0.00 in0.0 mm
10:33 AM 72.4°F22.4°C 49.9°F9.9°C 45% Calm Calm 6.0 mph9.7 kmh 29.86 in1011.2 mb 0.00 in0.0 mm 0.00 in/hr0.0 mm/hr 0.00 in0.0 mm
10:41 AM 73.1°F22.8°C 51.1°F10.6°C 46% 3.0 mph N4.8 kmh N 6.0 mph9.7 kmh 29.86 in1011.2 mb 0.00 in0.0 mm 0.00 in/hr0.0 mm/hr 0.00 in0.0 mm
10:51 AM 74.0°F23.3°C 51.3°F10.7°C 45% 3.0 mph N4.8 kmh N 6.0 mph9.7 kmh 29.86 in1011.2 mb 0.00 in0.0 mm 0.00 in/hr0.0 mm/hr 0.00 in0.0 mm
11:03 AM 73.9°F23.3°C 51.8°F11.0°C 46% 2.0 mph NE3.2 kmh NE 6.0 mph9.7 kmh 29.87 in1011.5 mb 0.00 in0.0 mm 0.00 in/hr0.0 mm/hr 0.00 in0.0 mm
11:11 AM 74.8°F23.8°C 52.1°F11.2°C 45% Calm Calm 6.0 mph9.7 kmh 29.86 in1011.2 mb 0.00 in0.0 mm 0.00 in/hr0.0 mm/hr 0.00 in0.0 mm
11:21 AM 75.3°F24.1°C 52.5°F11.4°C 45% 3.0 mph NE4.8 kmh NE 4.0 mph6.4 kmh 29.86 in1011.2 mb 0.00 in0.0 mm 0.00 in/hr0.0 mm/hr 0.00 in0.0 mm
11:33 AM 75.9°F24.4°C 52.5°F11.4°C 44% 5.0 mph NNE8.0 kmh NNE 7.0 mph11.3 kmh 29.86 in1011.2 mb 0.00 in0.0 mm 0.00 in/hr0.0 mm/hr 0.00 in0.0 mm
11:41 AM 75.5°F24.2°C 52.1°F11.2°C 44% 4.0 mph NE6.4 kmh NE 7.0 mph11.3 kmh 29.86 in1011.2 mb 0.00 in0.0 mm 0.00 in/hr0.0 mm/hr 0.00 in0.0 mm
11:51 AM 75.9°F24.4°C 52.5°F11.4°C 44% 1.0 mph N1.6 kmh N 7.0 mph11.3 kmh 29.86 in1011.2 mb 0.00 in0.0 mm 0.00 in/hr0.0 mm/hr 0.00 in0.0 mm
12:03 PM 76.4°F24.7°C 52.9°F11.6°C 44% Calm Calm 6.0 mph9.7 kmh 29.85 in1010.8 mb 0.00 in0.0 mm 0.00 in/hr0.0 mm/hr 0.00 in0.0 mm
12:11 PM 76.6°F24.8°C 54.3°F12.4°C 46% 1.0 mph N1.6 kmh N 6.0 mph9.7 kmh 29.86 in1011.2 mb 0.00 in0.0 mm 0.00 in/hr0.0 mm/hr 0.00 in0.0 mm
12:20 PM 77.5°F25.3°C 55.1°F12.8°C 46% 3.0 mph NNW4.8 kmh NNW 4.0 mph6.4 kmh 29.85 in1010.8 mb 0.00 in0.0 mm 0.00 in/hr0.0 mm/hr 0.00 in0.0 mm
12:33 PM 78.4°F25.8°C 53.4°F11.9°C 42% 5.0 mph N8.0 kmh N 8.0 mph12.9 kmh 29.85 in1010.8 mb 0.00 in0.0 mm 0.00 in/hr0.0 mm/hr 0.00 in0.0 mm
12:41 PM 78.3°F25.7°C 54.6°F12.6°C 44% 3.0 mph N4.8 kmh N 6.0 mph9.7 kmh 29.86 in1011.2 mb 0.00 in0.0 mm 0.00 in/hr0.0 mm/hr 0.00 in0.0 mm
12:51 PM 78.5°F25.8°C 54.8°F12.7°C 44% 6.0 mph NNE9.7 kmh NNE 7.0 mph11.3 kmh 29.85 in1010.8 mb 0.00 in0.0 mm 0.00 in/hr0.0 mm/hr 0.00 in0.0 mm
01:03 PM 78.7°F25.9°C 55.0°F12.8°C 44% 2.0 mph NNE3.2 kmh NNE 6.0 mph9.7 kmh 29.86 in1011.2 mb 0.00 in0.0 mm 0.00 in/hr0.0 mm/hr 0.00 in0.0 mm
01:11 PM 78.7°F25.9°C 53.7°F12.1°C 42% 4.0 mph NE6.4 kmh NE 7.0 mph11.3 kmh 29.85 in1010.8 mb 0.00 in0.0 mm 0.00 in/hr0.0 mm/hr 0.00 in0.0 mm
01:21 PM 78.9°F26.1°C 53.9°F12.2°C 42% Calm Calm 6.0 mph9.7 kmh 29.86 in1011.2 mb 0.00 in0.0 mm 0.00 in/hr0.0 mm/hr 0.00 in0.0 mm
01:33 PM 80.1°F26.7°C 54.3°F12.4°C 41% 4.0 mph 6.4 kmh 7.0 mph11.3 kmh 29.85 in1010.8 mb 0.00 in0.0 mm 0.00 in/hr0.0 mm/hr 0.00 in0.0 mm
01:41 PM 80.1°F26.7°C 49.2°F9.6°C 34% 4.0 mph NW6.4 kmh NW 7.0 mph11.3 kmh 29.85 in1010.8 mb 0.00 in0.0 mm 0.00 in/hr0.0 mm/hr 0.00 in0.0 mm
01:51 PM 80.5°F26.9°C 49.6°F9.8°C 34% 1.0 mph NE1.6 kmh NE 10.0 mph16.1 kmh 29.85 in1010.8 mb 0.00 in0.0 mm 0.00 in/hr0.0 mm/hr 0.00 in0.0 mm
02:03 PM 80.4°F26.9°C 50.3°F10.2°C 35% 4.0 mph WNW6.4 kmh WNW 10.0 mph16.1 kmh 29.85 in1010.8 mb 0.00 in0.0 mm 0.00 in/hr0.0 mm/hr 0.00 in0.0 mm
02:11 PM 80.8°F27.1°C 50.6°F10.3°C 35% 2.0 mph NW3.2 kmh NW 10.0 mph16.1 kmh 29.85 in1010.8 mb 0.00 in0.0 mm 0.00 in/hr0.0 mm/hr 0.00 in0.0 mm
02:21 PM 81.2°F27.3°C 50.2°F10.1°C 34% 4.0 mph NW6.4 kmh NW 5.0 mph8.0 kmh 29.85 in1010.8 mb 0.00 in0.0 mm 0.00 in/hr0.0 mm/hr 0.00 in0.0 mm
02:33 PM 81.2°F27.3°C 50.2°F10.1°C 34% 2.0 mph N3.2 kmh N 9.0 mph14.5 kmh 29.84 in1010.5 mb 0.00 in0.0 mm 0.00 in/hr0.0 mm/hr 0.00 in0.0 mm
02:41 PM 81.4°F27.4°C 49.6°F9.8°C 33% 7.0 mph N11.3 kmh N 10.0 mph16.1 kmh 29.84 in1010.5 mb 0.00 in0.0 mm 0.00 in/hr0.0 mm/hr 0.00 in0.0 mm
02:51 PM 81.8°F27.7°C 49.9°F9.9°C 33% 9.0 mph NW14.5 kmh NW 12.0 mph19.3 kmh 29.84 in1010.5 mb 0.00 in0.0 mm 0.00 in/hr0.0 mm/hr 0.00 in0.0 mm
03:03 PM 81.6°F27.6°C 50.5°F10.3°C 34% 7.0 mph N11.3 kmh N 11.0 mph17.7 kmh 29.84 in1010.5 mb 0.00 in0.0 mm 0.00 in/hr0.0 mm/hr 0.00 in0.0 mm
03:11 PM 81.8°F27.7°C 50.7°F10.4°C 34% 6.0 mph NW9.7 kmh NW 11.0 mph17.7 kmh 29.84 in1010.5 mb 0.00 in0.0 mm 0.00 in/hr0.0 mm/hr 0.00 in0.0 mm
03:21 PM 81.5°F27.5°C 49.7°F9.8°C 33% 5.0 mph W8.0 kmh W 10.0 mph16.1 kmh 29.84 in1010.5 mb 0.00 in0.0 mm 0.00 in/hr0.0 mm/hr 0.00 in0.0 mm
03:33 PM 81.6°F27.6°C 49.7°F9.8°C 33% 2.0 mph NNW3.2 kmh NNW 12.0 mph19.3 kmh 29.84 in1010.5 mb 0.00 in0.0 mm 0.00 in/hr0.0 mm/hr 0.00 in0.0 mm
03:41 PM 81.8°F27.7°C 49.9°F9.9°C 33% 6.0 mph N9.7 kmh N 9.0 mph14.5 kmh 29.84 in1010.5 mb 0.00 in0.0 mm 0.00 in/hr0.0 mm/hr 0.00 in0.0 mm
03:51 PM 81.7°F27.6°C 50.6°F10.3°C 34% 5.0 mph N8.0 kmh N 11.0 mph17.7 kmh 29.84 in1010.5 mb 0.00 in0.0 mm 0.00 in/hr0.0 mm/hr 0.00 in0.0 mm
04:03 PM 81.3°F27.4°C 50.3°F10.2°C 34% 5.0 mph NNW8.0 kmh NNW 12.0 mph19.3 kmh 29.84 in1010.5 mb 0.00 in0.0 mm 0.00 in/hr0.0 mm/hr 0.00 in0.0 mm
04:11 PM 81.4°F27.4°C 49.6°F9.8°C 33% 9.0 mph NW14.5 kmh NW 13.0 mph20.9 kmh 29.84 in1010.5 mb 0.00 in0.0 mm 0.00 in/hr0.0 mm/hr 0.00 in0.0 mm
04:21 PM 80.9°F27.2°C 49.1°F9.5°C 33% 8.0 mph NW12.9 kmh NW 13.0 mph20.9 kmh 29.83 in1010.2 mb 0.00 in0.0 mm 0.00 in/hr0.0 mm/hr 0.00 in0.0 mm
04:33 PM 81.2°F27.3°C 49.4°F9.7°C 33% 8.0 mph NW12.9 kmh NW 13.0 mph20.9 kmh 29.83 in1010.2 mb 0.00 in0.0 mm 0.00 in/hr0.0 mm/hr 0.00 in0.0 mm
04:41 PM 81.2°F27.3°C 49.4°F9.7°C 33% 8.0 mph NW12.9 kmh NW 11.0 mph17.7 kmh 29.83 in1010.2 mb 0.00 in0.0 mm 0.00 in/hr0.0 mm/hr 0.00 in0.0 mm
04:51 PM 81.1°F27.3°C 49.3°F9.6°C 33% 4.0 mph NW6.4 kmh NW 11.0 mph17.7 kmh 29.83 in1010.2 mb 0.00 in0.0 mm 0.00 in/hr0.0 mm/hr 0.00 in0.0 mm
05:03 PM 81.3°F27.4°C 48.7°F9.3°C 32% 5.0 mph NNW8.0 kmh NNW 10.0 mph16.1 kmh 29.83 in1010.2 mb 0.00 in0.0 mm 0.00 in/hr0.0 mm/hr 0.00 in0.0 mm
05:11 PM 80.8°F27.1°C 49.0°F9.4°C 33% 9.0 mph NW14.5 kmh NW 10.0 mph16.1 kmh 29.83 in1010.2 mb 0.00 in0.0 mm 0.00 in/hr0.0 mm/hr 0.00 in0.0 mm
05:21 PM 80.5°F26.9°C 48.8°F9.3°C 33% 7.0 mph NW11.3 kmh NW 10.0 mph16.1 kmh 29.83 in1010.2 mb 0.00 in0.0 mm 0.00 in/hr0.0 mm/hr 0.00 in0.0 mm
05:33 PM 80.4°F26.9°C 48.7°F9.3°C 33% 7.0 mph WNW11.3 kmh WNW 10.0 mph16.1 kmh 29.83 in1010.2 mb 0.00 in0.0 mm 0.00 in/hr0.0 mm/hr 0.00 in0.0 mm
05:41 PM 80.3°F26.8°C 48.6°F9.2°C 33% 5.0 mph W8.0 kmh W 7.0 mph11.3 kmh 29.83 in1010.2 mb 0.00 in0.0 mm 0.00 in/hr0.0 mm/hr 0.00 in0.0 mm
05:51 PM 80.2°F26.8°C 50.1°F10.1°C 35% 1.0 mph WNW1.6 kmh WNW 11.0 mph17.7 kmh 29.83 in1010.2 mb 0.00 in0.0 mm 0.00 in/hr0.0 mm/hr 0.00 in0.0 mm
06:03 PM 79.9°F26.6°C 49.8°F9.9°C 35% 1.0 mph WSW1.6 kmh WSW 3.0 mph4.8 kmh 29.83 in1010.2 mb 0.00 in0.0 mm 0.00 in/hr0.0 mm/hr 0.00 in0.0 mm
06:11 PM 79.6°F26.4°C 52.5°F11.4°C 39% 1.0 mph SSE1.6 kmh SSE 6.0 mph9.7 kmh 29.83 in1010.2 mb 0.00 in0.0 mm 0.00 in/hr0.0 mm/hr 0.00 in0.0 mm
06:21 PM 79.3°F26.3°C 53.6°F12.0°C 41% 2.0 mph SE3.2 kmh SE 5.0 mph8.0 kmh 29.83 in1010.2 mb 0.00 in0.0 mm 0.00 in/hr0.0 mm/hr 0.00 in0.0 mm
06:33 PM 78.7°F25.9°C 53.7°F12.1°C 42% 1.0 mph SSE1.6 kmh SSE 6.0 mph9.7 kmh 29.83 in1010.2 mb 0.00 in0.0 mm 0.00 in/hr0.0 mm/hr 0.00 in0.0 mm
06:41 PM 78.4°F25.8°C 54.1°F12.3°C 43% Calm Calm 3.0 mph4.8 kmh 29.83 in1010.2 mb 0.00 in0.0 mm 0.00 in/hr0.0 mm/hr 0.00 in0.0 mm
06:51 PM 77.9°F25.5°C 53.0°F11.7°C 42% 3.0 mph WSW4.8 kmh WSW 4.0 mph6.4 kmh 29.83 in1010.2 mb 0.00 in0.0 mm 0.00 in/hr0.0 mm/hr 0.00 in0.0 mm
07:03 PM 77.2°F25.1°C 53.0°F11.7°C 43% Calm Calm 3.0 mph4.8 kmh 29.83 in1010.2 mb 0.00 in0.0 mm 0.00 in/hr0.0 mm/hr 0.00 in0.0 mm
07:11 PM 76.6°F24.8°C 52.5°F11.4°C 43% 1.0 mph NW1.6 kmh NW 4.0 mph6.4 kmh 29.83 in1010.2 mb 0.00 in0.0 mm 0.00 in/hr0.0 mm/hr 0.00 in0.0 mm
07:21 PM 75.9°F24.4°C 52.5°F11.4°C 44% Calm Calm 1.0 mph1.6 kmh 29.84 in1010.5 mb 0.00 in0.0 mm 0.00 in/hr0.0 mm/hr 0.00 in0.0 mm
07:33 PM 75.1°F23.9°C 53.5°F11.9°C 47% Calm Calm 5.0 mph8.0 kmh 29.84 in1010.5 mb 0.00 in0.0 mm 0.00 in/hr0.0 mm/hr 0.00 in0.0 mm
07:41 PM 74.7°F23.7°C 53.2°F11.8°C 47% 1.0 mph E1.6 kmh E 1.0 mph1.6 kmh 29.84 in1010.5 mb 0.00 in0.0 mm 0.00 in/hr0.0 mm/hr 0.00 in0.0 mm
07:51 PM 73.9°F23.3°C 52.4°F11.3°C 47% Calm Calm 4.0 mph6.4 kmh 29.84 in1010.5 mb 0.00 in0.0 mm 0.00 in/hr0.0 mm/hr 0.00 in0.0 mm
08:03 PM 73.4°F23.0°C 53.1°F11.7°C 49% Calm Calm -- 29.84 in1010.5 mb 0.00 in0.0 mm 0.00 in/hr0.0 mm/hr 0.00 in0.0 mm
08:11 PM 72.9°F22.7°C 50.3°F10.2°C 45% 2.0 mph SE3.2 kmh SE 4.0 mph6.4 kmh 29.84 in1010.5 mb 0.00 in0.0 mm 0.00 in/hr0.0 mm/hr 0.00 in0.0 mm
08:21 PM 71.9°F22.2°C 51.2°F10.7°C 48% 2.0 mph SE3.2 kmh SE 2.0 mph3.2 kmh 29.84 in1010.5 mb 0.00 in0.0 mm 0.00 in/hr0.0 mm/hr 0.00 in0.0 mm
08:33 PM 70.5°F21.4°C 51.0°F10.6°C 50% 1.0 mph S1.6 kmh S 4.0 mph6.4 kmh 29.84 in1010.5 mb 0.00 in0.0 mm 0.00 in/hr0.0 mm/hr 0.00 in0.0 mm
08:41 PM 70.1°F21.2°C 52.2°F11.2°C 53% 1.0 mph S1.6 kmh S 2.0 mph3.2 kmh 29.84 in1010.5 mb 0.00 in0.0 mm 0.00 in/hr0.0 mm/hr 0.00 in0.0 mm
08:51 PM 69.8°F21.0°C 52.4°F11.3°C 54% 3.0 mph S4.8 kmh S 3.0 mph4.8 kmh 29.84 in1010.5 mb 0.00 in0.0 mm 0.00 in/hr0.0 mm/hr 0.00 in0.0 mm
09:03 PM 68.4°F20.2°C 51.6°F10.9°C 55% 2.0 mph SW3.2 kmh SW 3.0 mph4.8 kmh 29.85 in1010.8 mb 0.00 in0.0 mm 0.00 in/hr0.0 mm/hr 0.00 in0.0 mm
09:11 PM 68.0°F20.0°C 51.3°F10.7°C 55% Calm Calm 3.0 mph4.8 kmh 29.85 in1010.8 mb 0.00 in0.0 mm 0.00 in/hr0.0 mm/hr 0.00 in0.0 mm
09:21 PM 67.8°F19.9°C 51.1°F10.6°C 55% 2.0 mph SW3.2 kmh SW 3.0 mph4.8 kmh 29.86 in1011.2 mb 0.00 in0.0 mm 0.00 in/hr0.0 mm/hr 0.00 in0.0 mm
09:33 PM 66.5°F19.2°C 47.8°F8.8°C 51% 1.0 mph SW1.6 kmh SW 4.0 mph6.4 kmh 29.86 in1011.2 mb 0.00 in0.0 mm 0.00 in/hr0.0 mm/hr 0.00 in0.0 mm
09:41 PM 66.2°F19.0°C 49.1°F9.5°C 54% 2.0 mph SW3.2 kmh SW 4.0 mph6.4 kmh 29.86 in1011.2 mb 0.00 in0.0 mm 0.00 in/hr0.0 mm/hr 0.00 in0.0 mm
09:51 PM 66.3°F19.1°C 52.9°F11.6°C 62% Calm Calm 4.0 mph6.4 kmh 29.87 in1011.5 mb 0.00 in0.0 mm 0.00 in/hr0.0 mm/hr 0.00 in0.0 mm
10:03 PM 66.4°F19.1°C 53.0°F11.7°C 62% Calm Calm 2.0 mph3.2 kmh 29.86 in1011.2 mb 0.00 in0.0 mm 0.00 in/hr0.0 mm/hr 0.00 in0.0 mm
10:11 PM 66.1°F18.9°C 52.7°F11.5°C 62% 2.0 mph SW3.2 kmh SW 3.0 mph4.8 kmh 29.87 in1011.5 mb 0.00 in0.0 mm 0.00 in/hr0.0 mm/hr 0.00 in0.0 mm
10:21 PM 65.7°F18.7°C 53.6°F12.0°C 65% 1.0 mph SW1.6 kmh SW 1.0 mph1.6 kmh 29.87 in1011.5 mb 0.00 in0.0 mm 0.00 in/hr0.0 mm/hr 0.00 in0.0 mm
10:33 PM 65.6°F18.7°C 54.0°F12.2°C 66% Calm Calm 5.0 mph8.0 kmh 29.87 in1011.5 mb 0.00 in0.0 mm 0.00 in/hr0.0 mm/hr 0.00 in0.0 mm
10:41 PM 65.6°F18.7°C 54.0°F12.2°C 66% 2.0 mph SW3.2 kmh SW 3.0 mph4.8 kmh 29.87 in1011.5 mb 0.00 in0.0 mm 0.00 in/hr0.0 mm/hr 0.00 in0.0 mm
10:51 PM 65.4°F18.6°C 54.2°F12.3°C 67% 4.0 mph S6.4 kmh S 7.0 mph11.3 kmh 29.87 in1011.5 mb 0.00 in0.0 mm 0.00 in/hr0.0 mm/hr 0.00 in0.0 mm
11:03 PM 65.1°F18.4°C 52.2°F11.2°C 63% 4.0 mph S6.4 kmh S 6.0 mph9.7 kmh 29.87 in1011.5 mb 0.00 in0.0 mm 0.00 in/hr0.0 mm/hr 0.00 in0.0 mm
11:11 PM 65.0°F18.3°C 51.2°F10.7°C 61% 1.0 mph S1.6 kmh S 6.0 mph9.7 kmh 29.87 in1011.5 mb 0.00 in0.0 mm 0.00 in/hr0.0 mm/hr 0.00 in0.0 mm
11:21 PM 64.7°F18.2°C 49.1°F9.5°C 57% 6.0 mph SSE9.7 kmh SSE 8.0 mph12.9 kmh 29.87 in1011.5 mb 0.00 in0.0 mm 0.00 in/hr0.0 mm/hr 0.00 in0.0 mm
11:33 PM 64.3°F17.9°C 52.3°F11.3°C 65% 2.0 mph SSE3.2 kmh SSE 8.0 mph12.9 kmh 29.87 in1011.5 mb 0.00 in0.0 mm 0.00 in/hr0.0 mm/hr 0.00 in0.0 mm
11:41 PM 64.1°F17.8°C 52.1°F11.2°C 65% 1.0 mph SSE1.6 kmh SSE 2.0 mph3.2 kmh 29.87 in1011.5 mb 0.00 in0.0 mm 0.00 in/hr0.0 mm/hr 0.00 in0.0 mm
11:51 PM 64.0°F17.8°C 53.6°F12.0°C 69% 4.0 mph SSE6.4 kmh SSE 7.0 mph11.3 kmh 29.87 in1011.5 mb 0.00 in0.0 mm 0.00 in/hr0.0 mm/hr 0.00 in0.0 mm